WAT2758 YSSY-NWWW
Flight info
| Callsign | WAT2758 |
|---|---|
| Flight time | 2h 25m |
| Altitude | 39000 |
| Route | MARUB7/34R NOBAR B580 POXAK POXAK2 |
| Aircraft | A343/H-SDE2E3FGHIJ4J5M1RWXY/LB1D1 |
Departure
| Time | 2026-04-26 09:57 |
|---|---|
| Airport | Sydney Kingsford Smith International Airport (YSSY) |
Arrival
| Time | 2026-04-26 12:22 |
|---|---|
| Airport | La Tontouta International Airport (NWWW) |
| Time | Latitude | Longitude | Altitude | Speed | Heading |
|---|---|---|---|---|---|
| 2026-04-26 09:18 | -33.94022 | 151.16540 | 34 ft | 0 kts | 345° |
| 2026-04-26 09:34 | -33.94039 | 151.16545 | 33 ft | 4 kts | 345° |
| 2026-04-26 09:35 | -33.94065 | 151.16554 | 33 ft | 4 kts | 345° |
| 2026-04-26 09:35 | -33.94091 | 151.16562 | 32 ft | 3 kts | 345° |
| 2026-04-26 09:35 | -33.94114 | 151.16567 | 33 ft | 4 kts | 17° |
| 2026-04-26 09:35 | -33.94130 | 151.16549 | 32 ft | 4 kts | 74° |
| 2026-04-26 09:36 | -33.94135 | 151.16526 | 33 ft | 1 kts | 74° |
| 2026-04-26 09:36 | -33.94136 | 151.16523 | 33 ft | 0 kts | 74° |
| 2026-04-26 09:40 | -33.94135 | 151.16526 | 34 ft | 1 kts | 74° |
| 2026-04-26 09:40 | -33.94129 | 151.16550 | 34 ft | 5 kts | 74° |
| 2026-04-26 09:40 | -33.94118 | 151.16597 | 34 ft | 6 kts | 74° |
| 2026-04-26 09:40 | -33.94105 | 151.16653 | 34 ft | 7 kts | 74° |
| 2026-04-26 09:41 | -33.94089 | 151.16719 | 34 ft | 10 kts | 74° |
| 2026-04-26 09:41 | -33.94068 | 151.16811 | 34 ft | 13 kts | 74° |
| 2026-04-26 09:41 | -33.94042 | 151.16922 | 34 ft | 15 kts | 75° |
| 2026-04-26 09:41 | -33.94011 | 151.17057 | 34 ft | 18 kts | 75° |
| 2026-04-26 09:42 | -33.93988 | 151.17193 | 33 ft | 12 kts | 98° |
| 2026-04-26 09:42 | -33.94050 | 151.17244 | 33 ft | 12 kts | 165° |
| 2026-04-26 09:42 | -33.94150 | 151.17272 | 32 ft | 18 kts | 167° |
| 2026-04-26 09:42 | -33.94291 | 151.17308 | 34 ft | 23 kts | 168° |
| 2026-04-26 09:43 | -33.94464 | 151.17351 | 34 ft | 28 kts | 168° |
| 2026-04-26 09:43 | -33.94665 | 151.17405 | 34 ft | 30 kts | 168° |
| 2026-04-26 09:43 | -33.94874 | 151.17459 | 34 ft | 31 kts | 168° |
| 2026-04-26 09:43 | -33.95085 | 151.17513 | 34 ft | 31 kts | 168° |
| 2026-04-26 09:44 | -33.95297 | 151.17569 | 33 ft | 31 kts | 167° |
| 2026-04-26 09:44 | -33.95506 | 151.17623 | 34 ft | 28 kts | 168° |
| 2026-04-26 09:44 | -33.95698 | 151.17673 | 34 ft | 28 kts | 168° |
| 2026-04-26 09:44 | -33.95890 | 151.17723 | 34 ft | 29 kts | 168° |
| 2026-04-26 09:45 | -33.96053 | 151.17765 | 34 ft | 23 kts | 168° |
| 2026-04-26 09:45 | -33.96208 | 151.17805 | 34 ft | 23 kts | 168° |
| 2026-04-26 09:45 | -33.96325 | 151.17836 | 34 ft | 12 kts | 167° |
| 2026-04-26 09:45 | -33.96410 | 151.17865 | 34 ft | 13 kts | 150° |
| 2026-04-26 09:46 | -33.96433 | 151.17918 | 34 ft | 0 kts | 88° |
| 2026-04-26 09:46 | -33.96433 | 151.17921 | 34 ft | 1 kts | 88° |
| 2026-04-26 09:47 | -33.96432 | 151.17947 | 34 ft | 6 kts | 87° |
| 2026-04-26 09:47 | -33.96421 | 151.18008 | 34 ft | 8 kts | 74° |
| 2026-04-26 09:47 | -33.96389 | 151.18053 | 34 ft | 3 kts | 12° |
| 2026-04-26 09:47 | -33.96367 | 151.18048 | 34 ft | 0 kts | 348° |
| 2026-04-26 09:48 | -33.96332 | 151.18039 | 34 ft | 23 kts | 348° |
| 2026-04-26 09:48 | -33.95958 | 151.17944 | 32 ft | 85 kts | 348° |
| 2026-04-26 09:49 | -33.95259 | 151.17762 | 33 ft | 100 kts | 348° |
| 2026-04-26 09:49 | -33.94759 | 151.17632 | 33 ft | 43 kts | 348° |
| 2026-04-26 09:49 | -33.94518 | 151.17539 | 33 ft | 29 kts | 328° |
| 2026-04-26 09:49 | -33.94374 | 151.17409 | 34 ft | 8 kts | 319° |
| 2026-04-26 09:50 | -33.94368 | 151.17402 | 34 ft | 3 kts | 319° |
| 2026-04-26 09:50 | -33.94354 | 151.17388 | 33 ft | 0 kts | 319° |
| 2026-04-26 09:50 | -33.94352 | 151.17385 | 33 ft | 2 kts | 319° |
| 2026-04-26 09:50 | -33.94350 | 151.17383 | 33 ft | 0 kts | 319° |
| 2026-04-26 09:51 | -33.94340 | 151.17371 | 34 ft | 4 kts | 312° |
| 2026-04-26 09:51 | -33.94336 | 151.17332 | 34 ft | 4 kts | 243° |
| 2026-04-26 09:51 | -33.94355 | 151.17328 | 34 ft | 5 kts | 184° |
| 2026-04-26 09:52 | -33.94424 | 151.17342 | 34 ft | 15 kts | 168° |
| 2026-04-26 09:52 | -33.94689 | 151.17411 | 34 ft | 21 kts | 168° |
| 2026-04-26 09:52 | -33.94835 | 151.17448 | 34 ft | 22 kts | 167° |
| 2026-04-26 09:53 | -33.94998 | 151.17491 | 34 ft | 26 kts | 167° |
| 2026-04-26 09:53 | -33.95182 | 151.17540 | 33 ft | 28 kts | 167° |
| 2026-04-26 09:53 | -33.95372 | 151.17589 | 33 ft | 28 kts | 168° |
| 2026-04-26 09:53 | -33.95561 | 151.17638 | 34 ft | 28 kts | 168° |
| 2026-04-26 09:54 | -33.95754 | 151.17688 | 34 ft | 29 kts | 167° |
| 2026-04-26 09:54 | -33.95950 | 151.17738 | 34 ft | 29 kts | 168° |
| 2026-04-26 09:54 | -33.96147 | 151.17789 | 34 ft | 29 kts | 168° |
| 2026-04-26 09:54 | -33.96336 | 151.17838 | 34 ft | 15 kts | 168° |
| 2026-04-26 09:55 | -33.96421 | 151.17877 | 34 ft | 13 kts | 138° |
| 2026-04-26 09:55 | -33.96428 | 151.17981 | 34 ft | 13 kts | 78° |
| 2026-04-26 09:55 | -33.96402 | 151.18058 | 34 ft | 4 kts | 27° |
| 2026-04-26 09:55 | -33.96371 | 151.18052 | 34 ft | 9 kts | 346° |
| 2026-04-26 09:56 | -33.96141 | 151.17990 | 31 ft | 65 kts | 348° |
| 2026-04-26 09:56 | -33.95507 | 151.17828 | 33 ft | 119 kts | 348° |
| 2026-04-26 09:56 | -33.94549 | 151.17580 | 53 ft | 160 kts | 350° |
| 2026-04-26 09:56 | -33.93440 | 151.17270 | 572 ft | 167 kts | 349° |
| 2026-04-26 09:57 | -33.92296 | 151.16961 | 1231 ft | 170 kts | 349° |
| 2026-04-26 09:57 | -33.91092 | 151.16642 | 1786 ft | 185 kts | 348° |
| 2026-04-26 09:57 | -33.89892 | 151.15939 | 2290 ft | 208 kts | 322° |
| 2026-04-26 09:57 | -33.88883 | 151.14516 | 2740 ft | 238 kts | 307° |
| 2026-04-26 09:58 | -33.87884 | 151.12841 | 3515 ft | 251 kts | 308° |
| 2026-04-26 09:58 | -33.86784 | 151.11176 | 4420 ft | 257 kts | 310° |
| 2026-04-26 09:58 | -33.85601 | 151.09538 | 5355 ft | 263 kts | 311° |
| 2026-04-26 09:58 | -33.84356 | 151.07865 | 6213 ft | 273 kts | 312° |
| 2026-04-26 09:59 | -33.83044 | 151.06187 | 7097 ft | 277 kts | 314° |
| 2026-04-26 09:59 | -33.81682 | 151.04520 | 8014 ft | 281 kts | 314° |
| 2026-04-26 09:59 | -33.80300 | 151.02835 | 8919 ft | 285 kts | 315° |
| 2026-04-26 09:59 | -33.78873 | 151.01154 | 9802 ft | 288 kts | 320° |
| 2026-04-26 10:00 | -33.77181 | 150.99837 | 10507 ft | 297 kts | 337° |
| 2026-04-26 10:00 | -33.75153 | 150.99267 | 10854 ft | 314 kts | 357° |
| 2026-04-26 10:00 | -33.72910 | 150.99245 | 11227 ft | 331 kts | 7° |
| 2026-04-26 10:00 | -33.70680 | 151.00031 | 11743 ft | 341 kts | 29° |
| 2026-04-26 10:01 | -33.68841 | 151.01841 | 12428 ft | 345 kts | 47° |
| 2026-04-26 10:01 | -33.67351 | 151.04121 | 13151 ft | 350 kts | 56° |
| 2026-04-26 10:01 | -33.65999 | 151.06581 | 13874 ft | 355 kts | 57° |
| 2026-04-26 10:01 | -33.64661 | 151.09093 | 14586 ft | 359 kts | 58° |
| 2026-04-26 10:02 | -33.63338 | 151.11655 | 15264 ft | 363 kts | 59° |
| 2026-04-26 10:02 | -33.62026 | 151.14260 | 15926 ft | 367 kts | 59° |
| 2026-04-26 10:02 | -33.60715 | 151.16900 | 16628 ft | 370 kts | 59° |
| 2026-04-26 10:02 | -33.59395 | 151.19575 | 17342 ft | 374 kts | 60° |
| 2026-04-26 10:03 | -33.58066 | 151.22271 | 18040 ft | 377 kts | 60° |
| 2026-04-26 10:03 | -33.56726 | 151.24987 | 18712 ft | 380 kts | 60° |
| 2026-04-26 10:03 | -33.55371 | 151.27728 | 19297 ft | 384 kts | 60° |
| 2026-04-26 10:03 | -33.54002 | 151.30491 | 19877 ft | 388 kts | 60° |
| 2026-04-26 10:04 | -33.52618 | 151.33280 | 20460 ft | 391 kts | 60° |
| 2026-04-26 10:04 | -33.51221 | 151.36091 | 21064 ft | 393 kts | 60° |
| 2026-04-26 10:04 | -33.49818 | 151.38910 | 21677 ft | 395 kts | 60° |
| 2026-04-26 10:04 | -33.48404 | 151.41752 | 22234 ft | 399 kts | 60° |
| 2026-04-26 10:05 | -33.46973 | 151.44625 | 22725 ft | 404 kts | 60° |
| 2026-04-26 10:05 | -33.45523 | 151.47532 | 23220 ft | 408 kts | 60° |
| 2026-04-26 10:05 | -33.44080 | 151.50425 | 23742 ft | 411 kts | 60° |
| 2026-04-26 10:05 | -33.42607 | 151.53373 | 24185 ft | 414 kts | 60° |
| 2026-04-26 10:06 | -33.41120 | 151.56348 | 24594 ft | 418 kts | 60° |
| 2026-04-26 10:06 | -33.39602 | 151.59383 | 25019 ft | 421 kts | 60° |
| 2026-04-26 10:06 | -33.38093 | 151.62396 | 25421 ft | 424 kts | 60° |
| 2026-04-26 10:06 | -33.36594 | 151.65388 | 25835 ft | 426 kts | 60° |
| 2026-04-26 10:07 | -33.35068 | 151.68432 | 26266 ft | 428 kts | 60° |
| 2026-04-26 10:07 | -33.33508 | 151.71540 | 26658 ft | 431 kts | 60° |
| 2026-04-26 10:07 | -33.31981 | 151.74580 | 27026 ft | 434 kts | 60° |
| 2026-04-26 10:07 | -33.30421 | 151.77683 | 27404 ft | 437 kts | 60° |
| 2026-04-26 10:08 | -33.28850 | 151.80805 | 27773 ft | 440 kts | 60° |
| 2026-04-26 10:08 | -33.27268 | 151.83947 | 28137 ft | 442 kts | 60° |
| 2026-04-26 10:08 | -33.25675 | 151.87108 | 28475 ft | 445 kts | 60° |
| 2026-04-26 10:08 | -33.24070 | 151.90290 | 28821 ft | 448 kts | 60° |
| 2026-04-26 10:09 | -33.22457 | 151.93485 | 29175 ft | 451 kts | 60° |
| 2026-04-26 10:09 | -33.20832 | 151.96699 | 29499 ft | 453 kts | 60° |
| 2026-04-26 10:09 | -33.19199 | 151.99927 | 29826 ft | 456 kts | 60° |
| 2026-04-26 10:09 | -33.17557 | 152.03172 | 30156 ft | 458 kts | 60° |
| 2026-04-26 10:10 | -33.15903 | 152.06436 | 30441 ft | 461 kts | 60° |
| 2026-04-26 10:10 | -33.14237 | 152.09720 | 30677 ft | 464 kts | 60° |
| 2026-04-26 10:10 | -33.12563 | 152.13018 | 30941 ft | 466 kts | 60° |
| 2026-04-26 10:10 | -33.10878 | 152.16335 | 31205 ft | 468 kts | 60° |
| 2026-04-26 10:11 | -33.09185 | 152.19663 | 31463 ft | 470 kts | 60° |
| 2026-04-26 10:11 | -33.07483 | 152.23006 | 31705 ft | 472 kts | 60° |
| 2026-04-26 10:11 | -33.05776 | 152.26357 | 31969 ft | 474 kts | 60° |
| 2026-04-26 10:11 | -33.04065 | 152.29713 | 32316 ft | 473 kts | 60° |
| 2026-04-26 10:12 | -33.02353 | 152.33066 | 32664 ft | 473 kts | 60° |
| 2026-04-26 10:12 | -33.00666 | 152.36366 | 32990 ft | 472 kts | 60° |
| 2026-04-26 10:12 | -32.98956 | 152.39711 | 33286 ft | 473 kts | 60° |
| 2026-04-26 10:12 | -32.97244 | 152.43057 | 33587 ft | 473 kts | 60° |
| 2026-04-26 10:13 | -32.95532 | 152.46397 | 33905 ft | 473 kts | 60° |
| 2026-04-26 10:13 | -32.93822 | 152.49734 | 34218 ft | 472 kts | 60° |
| 2026-04-26 10:13 | -32.92109 | 152.53071 | 34494 ft | 472 kts | 60° |
| 2026-04-26 10:13 | -32.90396 | 152.56407 | 34759 ft | 472 kts | 60° |
| 2026-04-26 10:14 | -32.88686 | 152.59731 | 35027 ft | 471 kts | 60° |
| 2026-04-26 10:14 | -32.86974 | 152.63058 | 35285 ft | 471 kts | 60° |
| 2026-04-26 10:14 | -32.85263 | 152.66381 | 35540 ft | 470 kts | 60° |
| 2026-04-26 10:14 | -32.83553 | 152.69698 | 35795 ft | 470 kts | 59° |
| 2026-04-26 10:15 | -32.81845 | 152.73010 | 36043 ft | 470 kts | 59° |
| 2026-04-26 10:15 | -32.80135 | 152.76320 | 36285 ft | 470 kts | 59° |
| 2026-04-26 10:15 | -32.78424 | 152.79630 | 36524 ft | 469 kts | 59° |
| 2026-04-26 10:15 | -32.76738 | 152.82890 | 36770 ft | 469 kts | 59° |
| 2026-04-26 10:16 | -32.75006 | 152.86235 | 36992 ft | 469 kts | 59° |
| 2026-04-26 10:16 | -32.73298 | 152.89530 | 37244 ft | 468 kts | 59° |
| 2026-04-26 10:16 | -32.71610 | 152.92783 | 37481 ft | 468 kts | 59° |
| 2026-04-26 10:16 | -32.69881 | 152.96114 | 37703 ft | 468 kts | 59° |
| 2026-04-26 10:17 | -32.68197 | 152.99355 | 37925 ft | 467 kts | 59° |
| 2026-04-26 10:17 | -32.66490 | 153.02637 | 38110 ft | 468 kts | 59° |
| 2026-04-26 10:17 | -32.64780 | 153.05922 | 38305 ft | 468 kts | 59° |
| 2026-04-26 10:17 | -32.63067 | 153.09210 | 38518 ft | 468 kts | 59° |
| 2026-04-26 10:18 | -32.61356 | 153.12491 | 38742 ft | 467 kts | 59° |
| 2026-04-26 10:18 | -32.59647 | 153.15765 | 38942 ft | 467 kts | 59° |
| 2026-04-26 10:18 | -32.57937 | 153.19038 | 39105 ft | 467 kts | 59° |
| 2026-04-26 10:18 | -32.56229 | 153.22306 | 39232 ft | 467 kts | 59° |
| 2026-04-26 10:19 | -32.52792 | 153.28871 | 39282 ft | 468 kts | 59° |
| 2026-04-26 10:19 | -32.49363 | 153.35409 | 39281 ft | 467 kts | 59° |
| 2026-04-26 10:20 | -32.46507 | 153.40845 | 39282 ft | 468 kts | 59° |
| 2026-04-26 10:20 | -32.42484 | 153.48490 | 39282 ft | 468 kts | 59° |
| 2026-04-26 10:21 | -32.39030 | 153.55042 | 39284 ft | 469 kts | 59° |
| 2026-04-26 10:21 | -32.35594 | 153.61548 | 39285 ft | 469 kts | 59° |
| 2026-04-26 10:22 | -32.32113 | 153.68127 | 39281 ft | 469 kts | 59° |
| 2026-04-26 10:22 | -32.28642 | 153.74677 | 39290 ft | 470 kts | 59° |
| 2026-04-26 10:23 | -32.25168 | 153.81220 | 39278 ft | 470 kts | 59° |
| 2026-04-26 10:23 | -32.21711 | 153.87720 | 39284 ft | 470 kts | 59° |
| 2026-04-26 10:24 | -32.18230 | 153.94254 | 39282 ft | 470 kts | 59° |
| 2026-04-26 10:24 | -32.14743 | 154.00788 | 39282 ft | 471 kts | 59° |
| 2026-04-26 10:25 | -32.11240 | 154.07342 | 39287 ft | 472 kts | 59° |
| 2026-04-26 10:25 | -32.07735 | 154.13886 | 39268 ft | 472 kts | 59° |
| 2026-04-26 10:26 | -32.04229 | 154.20422 | 39285 ft | 472 kts | 59° |
| 2026-04-26 10:26 | -32.00721 | 154.26951 | 39285 ft | 472 kts | 59° |
| 2026-04-26 10:27 | -31.97205 | 154.33483 | 39281 ft | 473 kts | 59° |
| 2026-04-26 10:27 | -31.93193 | 154.39639 | 39273 ft | 475 kts | 51° |
| 2026-04-26 10:28 | -31.88937 | 154.45574 | 39276 ft | 474 kts | 50° |
| 2026-04-26 10:28 | -31.84640 | 154.51464 | 39287 ft | 474 kts | 50° |
| 2026-04-26 10:29 | -31.80342 | 154.57357 | 39273 ft | 474 kts | 50° |
| 2026-04-26 10:29 | -31.76041 | 154.63262 | 39283 ft | 477 kts | 50° |
| 2026-04-26 10:30 | -31.71728 | 154.69182 | 39283 ft | 477 kts | 50° |
| 2026-04-26 10:30 | -31.67411 | 154.75098 | 39285 ft | 476 kts | 50° |
| 2026-04-26 10:31 | -31.63128 | 154.80958 | 39278 ft | 476 kts | 50° |
| 2026-04-26 10:31 | -31.58816 | 154.86850 | 39278 ft | 477 kts | 50° |
| 2026-04-26 10:32 | -31.54475 | 154.92770 | 39274 ft | 479 kts | 50° |
| 2026-04-26 10:32 | -31.50129 | 154.98688 | 39282 ft | 479 kts | 50° |
| 2026-04-26 10:33 | -31.45781 | 155.04599 | 39276 ft | 478 kts | 50° |
| 2026-04-26 10:33 | -31.41441 | 155.10491 | 39268 ft | 478 kts | 50° |
| 2026-04-26 10:34 | -31.37087 | 155.16394 | 39264 ft | 480 kts | 49° |
| 2026-04-26 10:34 | -31.32716 | 155.22309 | 39276 ft | 481 kts | 49° |
| 2026-04-26 10:35 | -31.28337 | 155.28226 | 39268 ft | 481 kts | 49° |
| 2026-04-26 10:35 | -31.23959 | 155.34132 | 39275 ft | 481 kts | 49° |
| 2026-04-26 10:36 | -31.19579 | 155.40033 | 39255 ft | 481 kts | 49° |
| 2026-04-26 10:36 | -31.15183 | 155.45945 | 39266 ft | 482 kts | 49° |
| 2026-04-26 10:37 | -31.10776 | 155.51864 | 39266 ft | 483 kts | 49° |
| 2026-04-26 10:37 | -31.06397 | 155.57735 | 39278 ft | 483 kts | 49° |
| 2026-04-26 10:38 | -31.01982 | 155.63645 | 39263 ft | 483 kts | 49° |
| 2026-04-26 10:38 | -30.98312 | 155.68552 | 39264 ft | 483 kts | 49° |
| 2026-04-26 10:39 | -30.93895 | 155.74450 | 39259 ft | 483 kts | 49° |
| 2026-04-26 10:39 | -30.89471 | 155.80347 | 39254 ft | 483 kts | 49° |
| 2026-04-26 10:40 | -30.85046 | 155.86237 | 39258 ft | 483 kts | 49° |
| 2026-04-26 10:40 | -30.80620 | 155.92123 | 39258 ft | 483 kts | 48° |
| 2026-04-26 10:41 | -30.76187 | 155.98003 | 39263 ft | 484 kts | 48° |
| 2026-04-26 10:41 | -30.71743 | 156.03887 | 39256 ft | 484 kts | 48° |
| 2026-04-26 10:42 | -30.67293 | 156.09770 | 39256 ft | 484 kts | 48° |
| 2026-04-26 10:42 | -30.62839 | 156.15652 | 39251 ft | 484 kts | 48° |
| 2026-04-26 10:43 | -30.58414 | 156.21488 | 39251 ft | 485 kts | 47° |
| 2026-04-26 10:43 | -30.53958 | 156.27354 | 39253 ft | 485 kts | 47° |
| 2026-04-26 10:44 | -30.49495 | 156.33222 | 39254 ft | 484 kts | 47° |
| 2026-04-26 10:44 | -30.45037 | 156.39074 | 39253 ft | 484 kts | 47° |
| 2026-04-26 10:45 | -30.40571 | 156.44927 | 39251 ft | 484 kts | 47° |
| 2026-04-26 10:45 | -30.36105 | 156.50772 | 39243 ft | 485 kts | 47° |
| 2026-04-26 10:46 | -30.31634 | 156.56616 | 39241 ft | 485 kts | 47° |
| 2026-04-26 10:46 | -30.27158 | 156.62456 | 39248 ft | 485 kts | 47° |
| 2026-04-26 10:47 | -30.22681 | 156.68289 | 39246 ft | 484 kts | 47° |
| 2026-04-26 10:47 | -30.18206 | 156.74111 | 39232 ft | 484 kts | 46° |
| 2026-04-26 10:48 | -30.13718 | 156.79940 | 39239 ft | 486 kts | 46° |
| 2026-04-26 10:48 | -30.09219 | 156.85777 | 39229 ft | 487 kts | 46° |
| 2026-04-26 10:49 | -30.04716 | 156.91609 | 39237 ft | 486 kts | 46° |
| 2026-04-26 10:49 | -30.00213 | 156.97433 | 39235 ft | 486 kts | 46° |
| 2026-04-26 10:50 | -29.96472 | 157.02265 | 39234 ft | 486 kts | 46° |
| 2026-04-26 10:50 | -29.91194 | 157.09071 | 39233 ft | 488 kts | 46° |
| 2026-04-26 10:51 | -29.84435 | 157.17770 | 39232 ft | 488 kts | 46° |
| 2026-04-26 10:52 | -29.79906 | 157.23589 | 39225 ft | 488 kts | 45° |
| 2026-04-26 10:52 | -29.75374 | 157.29403 | 39223 ft | 487 kts | 45° |
| 2026-04-26 10:53 | -29.70839 | 157.35212 | 39223 ft | 488 kts | 45° |
| 2026-04-26 10:53 | -29.66295 | 157.41023 | 39225 ft | 489 kts | 45° |
| 2026-04-26 10:54 | -29.59471 | 157.49737 | 39222 ft | 489 kts | 45° |
| 2026-04-26 10:54 | -29.54917 | 157.55541 | 39228 ft | 489 kts | 45° |
| 2026-04-26 10:55 | -29.50356 | 157.61345 | 39217 ft | 490 kts | 45° |
| 2026-04-26 10:55 | -29.45779 | 157.67161 | 39214 ft | 491 kts | 45° |
| 2026-04-26 10:56 | -29.41203 | 157.72967 | 39216 ft | 491 kts | 45° |
| 2026-04-26 10:56 | -29.36622 | 157.78772 | 39211 ft | 491 kts | 45° |
| 2026-04-26 10:57 | -29.32039 | 157.84571 | 39199 ft | 491 kts | 44° |
| 2026-04-26 10:57 | -29.27442 | 157.90377 | 39210 ft | 493 kts | 44° |
| 2026-04-26 10:58 | -29.22869 | 157.96147 | 39208 ft | 492 kts | 44° |
| 2026-04-26 10:58 | -29.18263 | 158.01950 | 39203 ft | 492 kts | 44° |
| 2026-04-26 10:59 | -29.13651 | 158.07752 | 39203 ft | 492 kts | 44° |
| 2026-04-26 10:59 | -29.09040 | 158.13544 | 39183 ft | 492 kts | 44° |
| 2026-04-26 11:00 | -29.04434 | 158.19321 | 39200 ft | 491 kts | 44° |
| 2026-04-26 11:00 | -28.99830 | 158.25088 | 39200 ft | 491 kts | 44° |
| 2026-04-26 11:01 | -28.95227 | 158.30846 | 39197 ft | 491 kts | 44° |
| 2026-04-26 11:01 | -28.90623 | 158.36596 | 39198 ft | 491 kts | 44° |
| 2026-04-26 11:02 | -28.86014 | 158.42344 | 39197 ft | 491 kts | 44° |
| 2026-04-26 11:02 | -28.81406 | 158.48084 | 39194 ft | 491 kts | 44° |
| 2026-04-26 11:03 | -28.76791 | 158.53824 | 39194 ft | 491 kts | 44° |
| 2026-04-26 11:03 | -28.72174 | 158.59557 | 39192 ft | 491 kts | 44° |
| 2026-04-26 11:04 | -28.67555 | 158.65285 | 39192 ft | 491 kts | 44° |
| 2026-04-26 11:04 | -28.62937 | 158.71005 | 39190 ft | 491 kts | 44° |
| 2026-04-26 11:05 | -28.58344 | 158.76685 | 39192 ft | 491 kts | 44° |
| 2026-04-26 11:05 | -28.53717 | 158.82400 | 39187 ft | 491 kts | 44° |
| 2026-04-26 11:06 | -28.49838 | 158.87185 | 39182 ft | 491 kts | 44° |
| 2026-04-26 11:06 | -28.44460 | 158.93808 | 39181 ft | 490 kts | 44° |
| 2026-04-26 11:07 | -28.39831 | 158.99502 | 39179 ft | 490 kts | 44° |
| 2026-04-26 11:07 | -28.35206 | 159.05183 | 39178 ft | 490 kts | 44° |
| 2026-04-26 11:08 | -28.30577 | 159.10860 | 39178 ft | 490 kts | 43° |
| 2026-04-26 11:08 | -28.25944 | 159.16535 | 39178 ft | 490 kts | 43° |
| 2026-04-26 11:09 | -28.21311 | 159.22204 | 39179 ft | 490 kts | 43° |
| 2026-04-26 11:09 | -28.16680 | 159.27856 | 39169 ft | 489 kts | 43° |
| 2026-04-26 11:10 | -28.12049 | 159.33501 | 39173 ft | 489 kts | 43° |
| 2026-04-26 11:10 | -28.07421 | 159.39136 | 39169 ft | 489 kts | 43° |
| 2026-04-26 11:11 | -28.02790 | 159.44768 | 39169 ft | 489 kts | 43° |
| 2026-04-26 11:11 | -27.98158 | 159.50393 | 39163 ft | 489 kts | 43° |
| 2026-04-26 11:12 | -27.93521 | 159.56017 | 39161 ft | 489 kts | 43° |
| 2026-04-26 11:12 | -27.88885 | 159.61631 | 39162 ft | 488 kts | 43° |
| 2026-04-26 11:13 | -27.84246 | 159.67243 | 39159 ft | 488 kts | 43° |
| 2026-04-26 11:13 | -27.79607 | 159.72845 | 39151 ft | 488 kts | 43° |
| 2026-04-26 11:14 | -27.74964 | 159.78446 | 39154 ft | 488 kts | 43° |
| 2026-04-26 11:14 | -27.71104 | 159.83097 | 39147 ft | 488 kts | 42° |
| 2026-04-26 11:15 | -27.65671 | 159.89633 | 39150 ft | 489 kts | 42° |
| 2026-04-26 11:15 | -27.61018 | 159.95224 | 39141 ft | 489 kts | 42° |
| 2026-04-26 11:16 | -27.56366 | 160.00807 | 39144 ft | 489 kts | 42° |
| 2026-04-26 11:16 | -27.51708 | 160.06388 | 39128 ft | 489 kts | 42° |
| 2026-04-26 11:17 | -27.47082 | 160.11923 | 39125 ft | 489 kts | 42° |
| 2026-04-26 11:17 | -27.42420 | 160.17495 | 39133 ft | 489 kts | 42° |
| 2026-04-26 11:18 | -27.37749 | 160.23070 | 39128 ft | 489 kts | 41° |
| 2026-04-26 11:18 | -27.33080 | 160.28635 | 39123 ft | 489 kts | 41° |
| 2026-04-26 11:19 | -27.28403 | 160.34203 | 39134 ft | 489 kts | 41° |
| 2026-04-26 11:19 | -27.23722 | 160.39768 | 39100 ft | 489 kts | 41° |
| 2026-04-26 11:20 | -27.19830 | 160.44389 | 39124 ft | 490 kts | 41° |
| 2026-04-26 11:20 | -27.14348 | 160.50889 | 39120 ft | 491 kts | 41° |
| 2026-04-26 11:21 | -27.09650 | 160.56453 | 39122 ft | 491 kts | 41° |
| 2026-04-26 11:21 | -27.04956 | 160.62005 | 39118 ft | 490 kts | 41° |
| 2026-04-26 11:22 | -27.00265 | 160.67546 | 39119 ft | 490 kts | 41° |
| 2026-04-26 11:22 | -26.95560 | 160.73094 | 39117 ft | 491 kts | 41° |
| 2026-04-26 11:23 | -26.90848 | 160.78645 | 39117 ft | 491 kts | 41° |
| 2026-04-26 11:23 | -26.86135 | 160.84190 | 39113 ft | 491 kts | 41° |
| 2026-04-26 11:24 | -26.81450 | 160.89695 | 39117 ft | 491 kts | 41° |
| 2026-04-26 11:24 | -26.76740 | 160.95224 | 39114 ft | 490 kts | 41° |
| 2026-04-26 11:25 | -26.72027 | 161.00747 | 39102 ft | 492 kts | 40° |
| 2026-04-26 11:25 | -26.67289 | 161.06290 | 39101 ft | 493 kts | 40° |
| 2026-04-26 11:26 | -26.63349 | 161.10896 | 39112 ft | 494 kts | 40° |
| 2026-04-26 11:26 | -26.58602 | 161.16441 | 39104 ft | 494 kts | 40° |
| 2026-04-26 11:27 | -26.53853 | 161.21980 | 39104 ft | 494 kts | 40° |
| 2026-04-26 11:27 | -26.49105 | 161.27511 | 39110 ft | 493 kts | 40° |
| 2026-04-26 11:28 | -26.44356 | 161.33035 | 39098 ft | 493 kts | 40° |
| 2026-04-26 11:28 | -26.39610 | 161.38549 | 39101 ft | 493 kts | 40° |
| 2026-04-26 11:29 | -26.34864 | 161.44056 | 39095 ft | 493 kts | 40° |
| 2026-04-26 11:29 | -26.30113 | 161.49561 | 39098 ft | 493 kts | 40° |
| 2026-04-26 11:30 | -26.25362 | 161.55060 | 39057 ft | 493 kts | 40° |
| 2026-04-26 11:30 | -26.20594 | 161.60570 | 39092 ft | 495 kts | 39° |
| 2026-04-26 11:31 | -26.15807 | 161.66095 | 39090 ft | 496 kts | 39° |
| 2026-04-26 11:31 | -26.11017 | 161.71619 | 39082 ft | 496 kts | 39° |
| 2026-04-26 11:32 | -26.06226 | 161.77137 | 39085 ft | 496 kts | 39° |
| 2026-04-26 11:32 | -26.01437 | 161.82646 | 39078 ft | 496 kts | 39° |
| 2026-04-26 11:33 | -25.96634 | 161.88162 | 39075 ft | 498 kts | 39° |
| 2026-04-26 11:33 | -25.91803 | 161.93701 | 39075 ft | 499 kts | 39° |
| 2026-04-26 11:34 | -25.86999 | 161.99208 | 39071 ft | 500 kts | 39° |
| 2026-04-26 11:34 | -25.82162 | 162.04744 | 39069 ft | 500 kts | 39° |
| 2026-04-26 11:35 | -25.77322 | 162.10277 | 39070 ft | 500 kts | 39° |
| 2026-04-26 11:35 | -25.72474 | 162.15812 | 39053 ft | 500 kts | 38° |
| 2026-04-26 11:36 | -25.67603 | 162.21361 | 39062 ft | 503 kts | 38° |
| 2026-04-26 11:36 | -25.62715 | 162.26926 | 39060 ft | 504 kts | 38° |
| 2026-04-26 11:37 | -25.57829 | 162.32487 | 39056 ft | 503 kts | 38° |
| 2026-04-26 11:37 | -25.52946 | 162.38034 | 39051 ft | 503 kts | 38° |
| 2026-04-26 11:38 | -25.48060 | 162.43576 | 39020 ft | 503 kts | 38° |
| 2026-04-26 11:38 | -25.43163 | 162.49122 | 39047 ft | 505 kts | 38° |
| 2026-04-26 11:39 | -25.38241 | 162.54692 | 39047 ft | 506 kts | 38° |
| 2026-04-26 11:39 | -25.33323 | 162.60251 | 39045 ft | 506 kts | 38° |
| 2026-04-26 11:40 | -25.28403 | 162.65806 | 39037 ft | 505 kts | 37° |
| 2026-04-26 11:40 | -25.23515 | 162.71318 | 39038 ft | 505 kts | 37° |
| 2026-04-26 11:42 | -25.03754 | 162.93528 | 39031 ft | 507 kts | 37° |
| 2026-04-26 11:43 | -24.98808 | 162.99072 | 39029 ft | 507 kts | 37° |
| 2026-04-26 11:43 | -24.93860 | 163.04605 | 39031 ft | 507 kts | 36° |
| 2026-04-26 11:44 | -24.88883 | 163.10152 | 39024 ft | 510 kts | 36° |
| 2026-04-26 11:44 | -24.83898 | 163.15708 | 39029 ft | 510 kts | 36° |
| 2026-04-26 11:45 | -24.78907 | 163.21264 | 39026 ft | 510 kts | 36° |
| 2026-04-26 11:45 | -24.73951 | 163.26775 | 39023 ft | 510 kts | 36° |
| 2026-04-26 11:46 | -24.68959 | 163.32319 | 38970 ft | 510 kts | 36° |
| 2026-04-26 11:46 | -24.63954 | 163.37869 | 39009 ft | 512 kts | 36° |
| 2026-04-26 11:47 | -24.58937 | 163.43427 | 39009 ft | 513 kts | 36° |
| 2026-04-26 11:47 | -24.53914 | 163.48986 | 39007 ft | 513 kts | 36° |
| 2026-04-26 11:48 | -24.48884 | 163.54546 | 39006 ft | 513 kts | 36° |
| 2026-04-26 11:48 | -24.43854 | 163.60098 | 39002 ft | 513 kts | 36° |
| 2026-04-26 11:49 | -24.38816 | 163.65651 | 39010 ft | 514 kts | 35° |
| 2026-04-26 11:49 | -24.33795 | 163.71180 | 38990 ft | 516 kts | 35° |
| 2026-04-26 11:50 | -24.28727 | 163.76755 | 39004 ft | 516 kts | 35° |
| 2026-04-26 11:50 | -24.23660 | 163.82322 | 38992 ft | 516 kts | 35° |
| 2026-04-26 11:51 | -24.18597 | 163.87878 | 38990 ft | 516 kts | 35° |
| 2026-04-26 11:51 | -24.13525 | 163.93437 | 38961 ft | 515 kts | 34° |
| 2026-04-26 11:52 | -24.09301 | 163.98059 | 38991 ft | 518 kts | 34° |
| 2026-04-26 11:52 | -24.03342 | 164.04576 | 38990 ft | 518 kts | 34° |
| 2026-04-26 11:53 | -23.98238 | 164.10149 | 38987 ft | 519 kts | 34° |
| 2026-04-26 11:54 | -23.90579 | 164.18502 | 38982 ft | 519 kts | 34° |
| 2026-04-26 11:54 | -23.85499 | 164.24033 | 38985 ft | 518 kts | 34° |
| 2026-04-26 11:55 | -23.80386 | 164.29594 | 38985 ft | 518 kts | 34° |
| 2026-04-26 11:55 | -23.77826 | 164.32375 | 38813 ft | 518 kts | 34° |
| 2026-04-26 11:55 | -23.75275 | 164.35146 | 38580 ft | 518 kts | 34° |
| 2026-04-26 11:55 | -23.72718 | 164.37921 | 38277 ft | 518 kts | 34° |
| 2026-04-26 11:56 | -23.70162 | 164.40693 | 38011 ft | 518 kts | 34° |
| 2026-04-26 11:56 | -23.67605 | 164.43465 | 37745 ft | 518 kts | 34° |
| 2026-04-26 11:56 | -23.65048 | 164.46235 | 37487 ft | 518 kts | 34° |
| 2026-04-26 11:56 | -23.62483 | 164.49013 | 37223 ft | 518 kts | 34° |
| 2026-04-26 11:57 | -23.59925 | 164.51780 | 36906 ft | 518 kts | 34° |
| 2026-04-26 11:57 | -23.57368 | 164.54546 | 36654 ft | 518 kts | 34° |
| 2026-04-26 11:57 | -23.54807 | 164.57314 | 36403 ft | 518 kts | 34° |
| 2026-04-26 11:57 | -23.52252 | 164.60075 | 36158 ft | 518 kts | 34° |
| 2026-04-26 11:58 | -23.49693 | 164.62838 | 35920 ft | 518 kts | 34° |
| 2026-04-26 11:58 | -23.47138 | 164.65594 | 35670 ft | 517 kts | 34° |
| 2026-04-26 11:58 | -23.44580 | 164.68354 | 35422 ft | 517 kts | 34° |
| 2026-04-26 11:58 | -23.42023 | 164.71114 | 35193 ft | 517 kts | 34° |
| 2026-04-26 11:59 | -23.39466 | 164.73868 | 34956 ft | 516 kts | 34° |
| 2026-04-26 11:59 | -23.36953 | 164.76570 | 34593 ft | 515 kts | 34° |
| 2026-04-26 11:59 | -23.34400 | 164.79314 | 33963 ft | 515 kts | 34° |
| 2026-04-26 11:59 | -23.31845 | 164.82055 | 33142 ft | 517 kts | 34° |
| 2026-04-26 12:00 | -23.29282 | 164.84807 | 32451 ft | 518 kts | 35° |
| 2026-04-26 12:00 | -23.26714 | 164.87563 | 31708 ft | 519 kts | 35° |
| 2026-04-26 12:00 | -23.24145 | 164.90320 | 31101 ft | 518 kts | 35° |
| 2026-04-26 12:00 | -23.21589 | 164.93064 | 30576 ft | 515 kts | 35° |
| 2026-04-26 12:01 | -23.19049 | 164.95789 | 30042 ft | 512 kts | 35° |
| 2026-04-26 12:01 | -23.16520 | 164.98499 | 29445 ft | 509 kts | 35° |
| 2026-04-26 12:01 | -23.14009 | 165.01188 | 28895 ft | 505 kts | 35° |
| 2026-04-26 12:01 | -23.11518 | 165.03856 | 28364 ft | 501 kts | 36° |
| 2026-04-26 12:02 | -23.09046 | 165.06500 | 27833 ft | 497 kts | 36° |
| 2026-04-26 12:02 | -23.07420 | 165.08238 | 27480 ft | 494 kts | 36° |
| 2026-04-26 12:02 | -23.04162 | 165.11718 | 26778 ft | 489 kts | 36° |
| 2026-04-26 12:02 | -23.01749 | 165.14295 | 26235 ft | 484 kts | 36° |
| 2026-04-26 12:03 | -22.99354 | 165.16851 | 25717 ft | 481 kts | 36° |
| 2026-04-26 12:03 | -22.96976 | 165.19385 | 25185 ft | 477 kts | 36° |
| 2026-04-26 12:03 | -22.94649 | 165.21866 | 24667 ft | 474 kts | 36° |
| 2026-04-26 12:03 | -22.92301 | 165.24367 | 24135 ft | 471 kts | 36° |
| 2026-04-26 12:04 | -22.89973 | 165.26845 | 23607 ft | 468 kts | 36° |
| 2026-04-26 12:04 | -22.87657 | 165.29310 | 22999 ft | 464 kts | 36° |
| 2026-04-26 12:04 | -22.85362 | 165.31751 | 22468 ft | 459 kts | 36° |
| 2026-04-26 12:04 | -22.83092 | 165.34167 | 21950 ft | 454 kts | 36° |
| 2026-04-26 12:05 | -22.80849 | 165.36551 | 21436 ft | 449 kts | 37° |
| 2026-04-26 12:05 | -22.78627 | 165.38911 | 20922 ft | 445 kts | 37° |
| 2026-04-26 12:05 | -22.76429 | 165.41245 | 20419 ft | 440 kts | 37° |
| 2026-04-26 12:05 | -22.74253 | 165.43553 | 19893 ft | 435 kts | 37° |
| 2026-04-26 12:06 | -22.72101 | 165.45836 | 19416 ft | 431 kts | 37° |
| 2026-04-26 12:06 | -22.69970 | 165.48096 | 18922 ft | 427 kts | 37° |
| 2026-04-26 12:06 | -22.67855 | 165.50336 | 18437 ft | 423 kts | 37° |
| 2026-04-26 12:06 | -22.65761 | 165.52554 | 17891 ft | 419 kts | 37° |
| 2026-04-26 12:07 | -22.63689 | 165.54748 | 17395 ft | 414 kts | 37° |
| 2026-04-26 12:07 | -22.61639 | 165.56918 | 16902 ft | 409 kts | 37° |
| 2026-04-26 12:07 | -22.59646 | 165.59027 | 16431 ft | 404 kts | 38° |
| 2026-04-26 12:07 | -22.57643 | 165.61143 | 15942 ft | 399 kts | 38° |
| 2026-04-26 12:08 | -22.55667 | 165.63232 | 15468 ft | 395 kts | 38° |
| 2026-04-26 12:08 | -22.53714 | 165.65294 | 14994 ft | 391 kts | 38° |
| 2026-04-26 12:08 | -22.51777 | 165.67339 | 14519 ft | 387 kts | 38° |
| 2026-04-26 12:08 | -22.49862 | 165.69360 | 14052 ft | 383 kts | 39° |
| 2026-04-26 12:09 | -22.47963 | 165.71364 | 13572 ft | 380 kts | 39° |
| 2026-04-26 12:09 | -22.46077 | 165.73352 | 13067 ft | 376 kts | 39° |
| 2026-04-26 12:09 | -22.44219 | 165.75312 | 12617 ft | 371 kts | 39° |
| 2026-04-26 12:09 | -22.42381 | 165.77250 | 12172 ft | 367 kts | 39° |
| 2026-04-26 12:10 | -22.40565 | 165.79163 | 11709 ft | 363 kts | 38° |
| 2026-04-26 12:10 | -22.38765 | 165.81060 | 11277 ft | 359 kts | 38° |
| 2026-04-26 12:10 | -22.36987 | 165.82938 | 10811 ft | 357 kts | 39° |
| 2026-04-26 12:10 | -22.35215 | 165.84805 | 10420 ft | 352 kts | 39° |
| 2026-04-26 12:11 | -22.33493 | 165.86618 | 10281 ft | 339 kts | 39° |
| 2026-04-26 12:11 | -22.31835 | 165.88363 | 10158 ft | 327 kts | 38° |
| 2026-04-26 12:11 | -22.30231 | 165.90051 | 10038 ft | 316 kts | 38° |
| 2026-04-26 12:11 | -22.28679 | 165.91683 | 9913 ft | 307 kts | 38° |
| 2026-04-26 12:12 | -22.27169 | 165.93269 | 9712 ft | 300 kts | 38° |
| 2026-04-26 12:12 | -22.25679 | 165.94831 | 9410 ft | 298 kts | 38° |
| 2026-04-26 12:12 | -22.24196 | 165.96384 | 9104 ft | 295 kts | 39° |
| 2026-04-26 12:12 | -22.23221 | 165.97405 | 8885 ft | 294 kts | 39° |
| 2026-04-26 12:13 | -22.21029 | 165.99067 | 8397 ft | 284 kts | 15° |
| 2026-04-26 12:13 | -22.19131 | 165.99327 | 8098 ft | 272 kts | 350° |
| 2026-04-26 12:13 | -22.17295 | 165.98908 | 7819 ft | 268 kts | 341° |
| 2026-04-26 12:13 | -22.15503 | 165.98353 | 7538 ft | 268 kts | 341° |
| 2026-04-26 12:14 | -22.13726 | 165.97794 | 7272 ft | 263 kts | 341° |
| 2026-04-26 12:14 | -22.12002 | 165.97231 | 7049 ft | 260 kts | 339° |
| 2026-04-26 12:14 | -22.10323 | 165.96636 | 6981 ft | 252 kts | 340° |
| 2026-04-26 12:14 | -22.08709 | 165.95989 | 6858 ft | 243 kts | 336° |
| 2026-04-26 12:15 | -22.07119 | 165.95368 | 6546 ft | 246 kts | 340° |
| 2026-04-26 12:15 | -22.05444 | 165.94869 | 6088 ft | 254 kts | 345° |
| 2026-04-26 12:15 | -22.03675 | 165.94517 | 5588 ft | 262 kts | 350° |
| 2026-04-26 12:15 | -22.01836 | 165.94320 | 5109 ft | 269 kts | 356° |
| 2026-04-26 12:16 | -21.99964 | 165.94287 | 4805 ft | 268 kts | 1° |
| 2026-04-26 12:16 | -21.98162 | 165.94662 | 4549 ft | 263 kts | 24° |
| 2026-04-26 12:16 | -21.96707 | 165.95787 | 4364 ft | 255 kts | 46° |
| 2026-04-26 12:16 | -21.95537 | 165.97177 | 4221 ft | 246 kts | 53° |
| 2026-04-26 12:17 | -21.94759 | 165.98763 | 4094 ft | 236 kts | 75° |
| 2026-04-26 12:17 | -21.94542 | 165.99895 | 3988 ft | 231 kts | 83° |
| 2026-04-26 12:17 | -21.94357 | 166.01579 | 3725 ft | 221 kts | 85° |
| 2026-04-26 12:17 | -21.94205 | 166.03182 | 3428 ft | 209 kts | 85° |
| 2026-04-26 12:18 | -21.94057 | 166.04699 | 3175 ft | 198 kts | 86° |
| 2026-04-26 12:18 | -21.93938 | 166.06148 | 2880 ft | 192 kts | 89° |
| 2026-04-26 12:18 | -21.94072 | 166.07550 | 2615 ft | 186 kts | 104° |
| 2026-04-26 12:18 | -21.94501 | 166.08835 | 2366 ft | 179 kts | 118° |
| 2026-04-26 12:19 | -21.95131 | 166.09966 | 2133 ft | 173 kts | 121° |
| 2026-04-26 12:19 | -21.95716 | 166.11062 | 1911 ft | 165 kts | 120° |
| 2026-04-26 12:19 | -21.96300 | 166.12100 | 1690 ft | 159 kts | 121° |
| 2026-04-26 12:19 | -21.96859 | 166.13095 | 1480 ft | 151 kts | 121° |
| 2026-04-26 12:20 | -21.97397 | 166.14059 | 1303 ft | 150 kts | 121° |
| 2026-04-26 12:20 | -21.97929 | 166.15008 | 1126 ft | 147 kts | 121° |
| 2026-04-26 12:20 | -21.98438 | 166.15916 | 917 ft | 137 kts | 120° |
| 2026-04-26 12:20 | -21.98928 | 166.16792 | 749 ft | 137 kts | 120° |
| 2026-04-26 12:21 | -21.99419 | 166.17677 | 574 ft | 137 kts | 120° |
| 2026-04-26 12:21 | -21.99917 | 166.18555 | 399 ft | 137 kts | 121° |
| 2026-04-26 12:21 | -22.00414 | 166.19433 | 220 ft | 136 kts | 121° |
| 2026-04-26 12:21 | -22.00895 | 166.20303 | 60 ft | 134 kts | 121° |
| 2026-04-26 12:22 | -22.01315 | 166.21053 | 57 ft | 92 kts | 121° |
| 2026-04-26 12:22 | -22.01517 | 166.21412 | 56 ft | 42 kts | 121° |
| 2026-04-26 12:22 | -22.01607 | 166.21571 | 54 ft | 14 kts | 121° |
| 2026-04-26 12:22 | -22.01597 | 166.21637 | 56 ft | 8 kts | 42° |
| 2026-04-26 12:23 | -22.01570 | 166.21656 | 60 ft | 0 kts | 31° |
| 2026-04-26 12:24 | -22.01554 | 166.21665 | 61 ft | 6 kts | 23° |
| 2026-04-26 12:24 | -22.01510 | 166.21642 | 59 ft | 10 kts | 308° |
| 2026-04-26 12:25 | -22.01417 | 166.21479 | 59 ft | 11 kts | 302° |
| 2026-04-26 12:25 | -22.01369 | 166.21461 | 60 ft | 8 kts | 14° |
| 2026-04-26 12:25 | -22.01314 | 166.21494 | 56 ft | 10 kts | 30° |
| 2026-04-26 12:25 | -22.01249 | 166.21535 | 59 ft | 12 kts | 30° |
| 2026-04-26 12:26 | -22.01232 | 166.21564 | 58 ft | 2 kts | 101° |
| 2026-04-26 12:26 | -22.01242 | 166.21586 | 56 ft | 6 kts | 120° |
| 2026-04-26 12:26 | -22.01259 | 166.21617 | 56 ft | 0 kts | 121° |
| 2026-04-26 12:26 | -22.01264 | 166.21626 | 56 ft | 0 kts | 121° |